Hastiere-Lavaux, Belgium
Current Conditions -  °F | °C
As of 3:25 PM on Monday 20 Oct 2014 (Local Time) from EBFS Reporting Station
Broken Clouds Broken Clouds  
Wind Chill: 57°   Ceiling: 22000
Heat Index: 57°   Visibility: 6mi
Dew Point: 50°   Wind: 13mph
Humidity: 77%   Direction: 240°WSW
Pressure: 30.06"   Gusts: NA
Location:  50.22°N, 4.82°E
Report Text: EBFS 201325Z 24011KT 9999 FEW017 SCT045 BKN220 14/10 Q1018 BLU BLU TEMPO WHT
Loading
Personal Weather Stations






























Interactive Weather Map
Tropical Storm Tracking
New forecast layout! Learn more

10-Day Weather Forecast

Advertisements
Track Severe Weather on mobile